createdAt,value
2023-04-15T00:00:58.948Z,5.85
2023-04-15T00:03:25.944Z,5.88
2023-04-15T00:05:52.783Z,5.72
2023-04-15T00:08:20.469Z,4.78
2023-04-15T00:10:47.137Z,5.72
2023-04-15T00:13:13.736Z,6.97
2023-04-15T00:15:40.293Z,4.63
2023-04-15T00:18:08.315Z,7.70
2023-04-15T00:20:35.691Z,6.97
2023-04-15T00:23:04.144Z,6.47
2023-04-15T00:25:31.010Z,5.90
2023-04-15T00:27:57.650Z,5.88
2023-04-15T00:30:24.295Z,5.80
2023-04-15T00:32:51.030Z,7.22
2023-04-15T00:35:18.338Z,6.53
2023-04-15T00:37:46.307Z,5.90
2023-04-15T00:40:13.812Z,7.38
2023-04-15T00:42:41.007Z,6.28
2023-04-15T00:45:08.897Z,7.13
2023-04-15T00:47:37.354Z,7.43
2023-04-15T00:52:30.815Z,8.45
2023-04-15T00:54:57.739Z,9.73
2023-04-15T00:57:24.534Z,7.32
2023-04-15T00:59:52.816Z,6.65
2023-04-15T01:02:19.985Z,7.18
2023-04-15T01:04:47.116Z,7.10
2023-04-15T01:07:13.699Z,9.25
2023-04-15T01:09:40.816Z,7.45
2023-04-15T01:12:08.716Z,7.97
2023-04-15T01:14:35.272Z,7.43
2023-04-15T01:17:02.286Z,9.93
2023-04-15T01:19:29.002Z,7.25
2023-04-15T01:21:56.361Z,7.25
2023-04-15T01:24:23.375Z,8.32
2023-04-15T01:26:50.474Z,8.75
2023-04-15T01:29:17.027Z,8.00
2023-04-15T01:31:53.721Z,7.28
2023-04-15T01:34:20.958Z,7.10
2023-04-15T01:36:47.618Z,7.50
2023-04-15T01:39:14.876Z,6.63
2023-04-15T01:41:42.413Z,6.93
2023-04-15T01:44:09.138Z,8.53
2023-04-15T01:46:36.466Z,9.50
2023-04-15T01:49:03.334Z,10.65
2023-04-15T01:51:29.920Z,8.23
2023-04-15T01:53:59.020Z,10.23
2023-04-15T01:56:25.556Z,10.20
2023-04-15T01:58:52.631Z,11.57
2023-04-15T02:01:22.328Z,10.40
2023-04-15T02:03:49.097Z,9.65
2023-04-15T02:06:16.020Z,13.68
2023-04-15T02:08:42.569Z,14.10
2023-04-15T02:11:09.387Z,17.88
2023-04-15T02:13:36.353Z,15.70
2023-04-15T02:16:03.722Z,18.02
2023-04-15T02:18:30.621Z,15.70
2023-04-15T02:20:58.821Z,16.02
2023-04-15T02:23:25.901Z,18.13
2023-04-15T02:25:53.922Z,13.35
2023-04-15T02:28:21.525Z,12.20
2023-04-15T02:30:52.989Z,11.73
2023-04-15T02:33:20.211Z,10.98
2023-04-15T02:35:47.341Z,11.25
2023-04-15T02:38:14.851Z,11.98
2023-04-15T02:40:41.623Z,12.67
2023-04-15T02:43:08.213Z,11.57
2023-04-15T02:45:34.954Z,12.93
2023-04-15T02:48:06.330Z,14.38
2023-04-15T02:50:33.431Z,15.15
2023-04-15T02:53:01.558Z,13.52
2023-04-15T02:55:28.979Z,14.82
2023-04-15T02:57:55.876Z,10.65
2023-04-15T03:00:25.264Z,10.90
2023-04-15T03:02:56.597Z,13.02
2023-04-15T03:05:26.283Z,12.25
2023-04-15T03:07:53.207Z,13.43
2023-04-15T03:10:20.251Z,14.52
2023-04-15T03:12:46.994Z,15.35
2023-04-15T03:15:13.679Z,12.32
2023-04-15T03:17:40.343Z,13.60
2023-04-15T03:20:07.493Z,13.00
2023-04-15T03:22:34.433Z,13.50
2023-04-15T03:25:01.016Z,15.00
2023-04-15T03:27:27.596Z,13.82
2023-04-15T03:29:54.146Z,14.15
2023-04-15T03:32:21.109Z,16.30
2023-04-15T03:34:47.779Z,16.63
2023-04-15T03:37:14.333Z,15.10
2023-04-15T03:39:40.915Z,14.85
2023-04-15T03:42:07.466Z,14.82
2023-04-15T03:44:34.016Z,14.65
2023-04-15T03:47:00.754Z,16.73
2023-04-15T03:49:27.348Z,16.10
2023-04-15T03:51:54.084Z,14.38
2023-04-15T03:54:20.896Z,18.13
2023-04-15T03:56:47.448Z,15.55
2023-04-15T03:59:14.023Z,17.27
2023-04-15T04:01:40.600Z,19.50
2023-04-15T04:04:07.627Z,15.82
2023-04-15T04:06:34.295Z,18.75
2023-04-15T04:09:01.911Z,22.02
2023-04-15T04:11:28.617Z,17.08
2023-04-15T04:13:55.181Z,20.65
2023-04-15T04:16:21.928Z,19.98
2023-04-15T04:18:48.587Z,22.05
2023-04-15T04:21:15.336Z,18.50
2023-04-15T04:23:41.988Z,21.70
2023-04-15T04:26:08.602Z,17.45
2023-04-15T04:28:36.478Z,23.10
2023-04-15T04:31:03.041Z,18.83
2023-04-15T04:33:29.610Z,21.05
2023-04-15T04:35:56.225Z,18.80
2023-04-15T04:38:22.860Z,23.63
2023-04-15T04:40:49.412Z,21.13
2023-04-15T04:43:16.234Z,25.45
2023-04-15T04:45:42.994Z,25.05
2023-04-15T04:48:10.597Z,22.08
2023-04-15T04:50:37.266Z,21.90
2023-04-15T04:53:03.910Z,24.63
2023-04-15T04:55:32.007Z,22.15
2023-04-15T04:57:58.577Z,23.70
2023-04-15T05:00:25.463Z,21.88
2023-04-15T05:02:52.256Z,23.75
2023-04-15T05:05:19.116Z,24.20
2023-04-15T05:07:45.725Z,26.83
2023-04-15T05:10:12.374Z,22.10
2023-04-15T05:12:39.052Z,22.83
2023-04-15T05:15:06.837Z,23.13
2023-04-15T05:17:35.352Z,24.25
2023-04-15T05:20:03.442Z,25.83
2023-04-15T05:22:29.997Z,23.77
2023-04-15T05:24:56.629Z,25.63
2023-04-15T05:27:24.118Z,24.17
2023-04-15T05:29:50.703Z,25.98
2023-04-15T05:32:17.475Z,21.70
2023-04-15T05:34:44.084Z,25.48
2023-04-15T05:37:10.673Z,25.95
2023-04-15T05:39:37.305Z,24.63
2023-04-15T05:42:06.015Z,23.75
2023-04-15T05:44:32.978Z,26.58
2023-04-15T05:46:59.670Z,25.58
2023-04-15T05:49:26.333Z,24.35
2023-04-15T05:51:52.942Z,25.52
2023-04-15T05:54:20.383Z,25.77
2023-04-15T05:56:47.037Z,30.07
2023-04-15T05:59:13.587Z,29.90
2023-04-15T06:01:40.309Z,30.95
2023-04-15T06:04:07.119Z,33.00
2023-04-15T06:06:33.786Z,39.33
2023-04-15T06:09:00.645Z,37.15
2023-04-15T06:11:27.443Z,41.75
2023-04-15T06:13:54.046Z,33.28
2023-04-15T06:16:20.677Z,39.35
2023-04-15T06:18:47.221Z,33.90
2023-04-15T06:21:13.880Z,35.40
2023-04-15T06:23:41.382Z,28.10
2023-04-15T06:26:08.546Z,28.43
2023-04-15T06:28:35.221Z,27.83
2023-04-15T06:31:02.029Z,27.35
2023-04-15T06:33:28.860Z,31.27
2023-04-15T06:35:55.457Z,31.67
2023-04-15T06:38:22.190Z,27.60
2023-04-15T06:40:48.816Z,30.13
2023-04-15T06:43:15.467Z,30.13
2023-04-15T06:45:42.010Z,28.08
2023-04-15T06:48:08.616Z,30.70
2023-04-15T06:50:35.806Z,30.58
2023-04-15T06:53:03.102Z,28.35
2023-04-15T06:55:34.010Z,26.65
2023-04-15T06:58:00.686Z,28.42
2023-04-15T07:00:28.674Z,26.30
2023-04-15T07:02:55.811Z,28.48
2023-04-15T07:05:22.709Z,28.85
2023-04-15T07:07:49.320Z,24.55
2023-04-15T07:10:16.043Z,25.83
2023-04-15T07:12:42.714Z,25.10
2023-04-15T07:15:10.052Z,26.88
2023-04-15T07:17:37.205Z,26.40
2023-04-15T07:20:04.977Z,24.13
2023-04-15T07:22:31.599Z,23.88
2023-04-15T07:24:58.162Z,25.60
2023-04-15T07:27:24.740Z,24.25
2023-04-15T07:29:52.107Z,23.58
2023-04-15T07:32:19.151Z,26.20
2023-04-15T07:34:45.869Z,23.92
2023-04-15T07:37:12.676Z,27.20
2023-04-15T07:39:39.237Z,28.00
2023-04-15T07:42:05.809Z,26.00
2023-04-15T07:44:32.419Z,25.23
2023-04-15T07:46:59.020Z,29.65
2023-04-15T07:49:25.666Z,29.27
2023-04-15T07:51:52.296Z,30.60
2023-04-15T07:54:18.853Z,29.10
2023-04-15T07:56:45.382Z,28.88
2023-04-15T07:59:11.973Z,28.25
2023-04-15T08:01:39.063Z,26.08
2023-04-15T08:04:05.793Z,24.45
2023-04-15T08:06:33.335Z,24.33
2023-04-15T08:09:00.249Z,25.13
2023-04-15T08:11:27.769Z,24.42
2023-04-15T08:13:54.398Z,21.15
2023-04-15T08:16:23.607Z,23.05
2023-04-15T08:18:52.171Z,20.50
2023-04-15T08:23:47.187Z,18.48
2023-04-15T08:26:14.277Z,21.60
2023-04-15T08:28:42.185Z,20.30
2023-04-15T08:31:09.703Z,20.27
2023-04-15T08:33:36.907Z,19.40
2023-04-15T08:36:03.706Z,18.40
2023-04-15T08:38:30.781Z,20.25
2023-04-15T08:40:58.940Z,18.63
2023-04-15T08:43:28.895Z,20.08
2023-04-15T08:45:55.862Z,18.98
2023-04-15T08:48:24.556Z,20.33
2023-04-15T08:50:51.538Z,18.67
2023-04-15T08:53:18.283Z,18.95
2023-04-15T08:55:46.236Z,15.82
2023-04-15T08:58:14.302Z,14.95
2023-04-15T09:00:41.698Z,16.17
2023-04-15T09:03:09.130Z,15.88
2023-04-15T09:05:37.278Z,11.73
2023-04-15T09:08:05.218Z,15.40
2023-04-15T09:10:32.413Z,11.93
2023-04-15T09:12:59.431Z,11.52
2023-04-15T09:15:32.419Z,21.10
2023-04-15T09:17:59.059Z,12.00
2023-04-15T09:20:25.669Z,10.40
2023-04-15T09:22:52.553Z,11.93
2023-04-15T09:25:26.538Z,10.20
2023-04-15T09:27:54.898Z,10.13
2023-04-15T09:30:21.422Z,9.93
2023-04-15T09:32:56.624Z,12.80
2023-04-15T09:35:24.171Z,9.80
2023-04-15T09:37:51.415Z,10.57
2023-04-15T09:40:41.226Z,9.55
2023-04-15T09:43:09.855Z,10.20
2023-04-15T09:45:37.204Z,12.95
2023-04-15T09:48:26.927Z,11.73
2023-04-15T09:50:57.691Z,11.00
2023-04-15T09:53:25.346Z,10.48
2023-04-15T09:55:54.661Z,9.90
2023-04-15T09:58:22.581Z,9.55
2023-04-15T10:00:51.087Z,10.27
2023-04-15T10:05:46.862Z,9.60
2023-04-15T10:08:13.467Z,9.43
2023-04-15T10:10:40.536Z,9.73
2023-04-15T10:13:07.313Z,8.93
2023-04-15T10:15:34.474Z,11.05
2023-04-15T10:18:01.655Z,11.40
2023-04-15T10:20:29.411Z,11.30
2023-04-15T10:22:56.500Z,9.10
2023-04-15T10:25:23.921Z,11.07
2023-04-15T10:27:52.190Z,11.20
2023-04-15T10:30:18.861Z,10.85
2023-04-15T10:32:46.181Z,13.18
2023-04-15T10:35:12.872Z,10.77
2023-04-15T10:37:39.718Z,11.30
2023-04-15T10:40:27.318Z,21.05
2023-04-15T10:42:58.494Z,11.20
2023-04-15T10:45:27.391Z,11.55
2023-04-15T10:47:58.181Z,9.85
2023-04-15T10:50:31.442Z,11.50
2023-04-15T10:52:58.259Z,10.13
2023-04-15T10:55:26.658Z,11.25
2023-04-15T11:00:24.764Z,9.52
2023-04-15T11:02:56.968Z,10.80
2023-04-15T11:05:49.788Z,10.57
2023-04-15T11:08:17.219Z,8.95
2023-04-15T11:10:43.782Z,10.80
2023-04-15T11:13:13.237Z,10.95
2023-04-15T11:15:41.900Z,8.00
2023-04-15T11:18:12.249Z,7.95
2023-04-15T11:20:40.497Z,8.73
2023-04-15T11:23:15.321Z,9.38
2023-04-15T11:25:43.305Z,7.65
2023-04-15T11:28:12.030Z,9.52
2023-04-15T11:33:07.371Z,8.70
2023-04-15T11:35:34.683Z,7.22
2023-04-15T11:38:06.092Z,7.72
2023-04-15T11:40:33.529Z,9.15
2023-04-15T11:43:10.428Z,7.68
2023-04-15T11:45:56.423Z,7.43
2023-04-15T11:48:25.507Z,6.82
2023-04-15T11:50:55.353Z,7.03
2023-04-15T11:53:22.202Z,7.70
2023-04-15T11:55:52.152Z,8.32
2023-04-15T11:58:25.230Z,6.60
2023-04-15T12:01:00.153Z,6.75
2023-04-15T12:03:45.825Z,6.43
2023-04-15T12:06:24.567Z,7.35
2023-04-15T12:09:03.940Z,5.85
2023-04-15T12:11:51.086Z,5.97
2023-04-15T12:14:33.146Z,7.45
2023-04-15T12:17:04.920Z,5.28
2023-04-15T12:19:42.022Z,4.88
2023-04-15T12:22:13.172Z,6.22
2023-04-15T12:24:40.493Z,4.38
2023-04-15T12:27:08.512Z,6.40
2023-04-15T12:29:36.485Z,6.07
2023-04-15T12:32:12.879Z,5.85
2023-04-15T12:34:53.153Z,5.35
2023-04-15T12:37:20.067Z,6.57
2023-04-15T12:39:48.995Z,6.40
2023-04-15T12:42:16.411Z,7.53
2023-04-15T12:44:43.193Z,5.97
2023-04-15T12:47:11.001Z,8.27
2023-04-15T12:49:38.112Z,7.03
2023-04-15T12:52:04.973Z,8.00
2023-04-15T12:54:32.151Z,6.82
2023-04-15T12:56:59.327Z,7.70
2023-04-15T12:59:26.010Z,8.25
2023-04-15T13:01:53.724Z,7.22
2023-04-15T13:04:21.431Z,6.53
2023-04-15T13:06:48.087Z,6.13
2023-04-15T13:09:15.783Z,6.93
2023-04-15T13:11:42.587Z,10.20
2023-04-15T13:14:09.763Z,6.90
2023-04-15T13:16:36.434Z,9.20
2023-04-15T13:19:04.025Z,8.18
2023-04-15T13:21:34.865Z,6.67
2023-04-15T13:24:01.860Z,9.45
2023-04-15T13:26:28.452Z,8.50
2023-04-15T13:28:55.126Z,12.73
2023-04-15T13:31:21.712Z,8.63
2023-04-15T13:33:48.382Z,8.63
2023-04-15T13:36:14.984Z,7.97
2023-04-15T13:38:41.589Z,9.27
2023-04-15T13:41:08.267Z,8.57
2023-04-15T13:43:34.847Z,12.23
2023-04-15T13:46:01.972Z,12.02
2023-04-15T13:48:28.875Z,13.13
2023-04-15T13:50:55.416Z,11.18
2023-04-15T13:53:37.648Z,10.57
2023-04-15T13:56:06.736Z,11.32
2023-04-15T13:58:33.440Z,11.30
2023-04-15T14:01:00.088Z,11.93
2023-04-15T14:03:26.855Z,10.45
2023-04-15T14:05:56.161Z,10.48
2023-04-15T14:08:23.810Z,10.75
2023-04-15T14:10:50.509Z,11.53
2023-04-15T14:13:17.211Z,13.05
2023-04-15T14:15:43.781Z,13.75
2023-04-15T14:18:10.383Z,11.07
2023-04-15T14:20:36.969Z,11.68
2023-04-15T14:23:03.529Z,12.20
2023-04-15T14:25:33.733Z,10.50
2023-04-15T14:28:01.158Z,11.02
2023-04-15T14:30:27.797Z,11.35
2023-04-15T14:32:54.494Z,11.02
2023-04-15T14:35:21.244Z,11.23
2023-04-15T14:37:47.910Z,12.85
2023-04-15T14:40:14.504Z,11.63
2023-04-15T14:42:41.102Z,9.60
2023-04-15T14:45:08.311Z,11.65
2023-04-15T14:47:35.021Z,10.98
2023-04-15T14:50:02.486Z,11.82
2023-04-15T14:52:30.028Z,12.90
2023-04-15T14:54:56.555Z,10.77
2023-04-15T14:57:23.145Z,12.85
2023-04-15T14:59:49.674Z,10.13
2023-04-15T15:02:26.299Z,11.32
2023-04-15T15:05:03.540Z,11.35
2023-04-15T15:07:30.334Z,12.38
2023-04-15T15:09:56.950Z,12.65
2023-04-15T15:12:23.610Z,11.18
2023-04-15T15:14:50.460Z,14.75
2023-04-15T15:17:17.084Z,11.05
2023-04-15T15:19:43.666Z,12.05
2023-04-15T15:22:10.226Z,11.50
2023-04-15T15:24:36.845Z,12.15
2023-04-15T15:27:03.501Z,11.05
2023-04-15T15:29:30.053Z,14.38
2023-04-15T15:31:56.708Z,12.77
2023-04-15T15:34:23.337Z,13.80
2023-04-15T15:36:49.945Z,15.43
2023-04-15T15:39:16.651Z,15.27
2023-04-15T15:41:43.319Z,14.23
2023-04-15T15:44:09.914Z,14.77
2023-04-15T15:46:36.517Z,15.80
2023-04-15T15:49:04.105Z,18.42
2023-04-15T15:51:30.945Z,18.73
2023-04-15T15:53:57.681Z,17.42
2023-04-15T15:56:24.276Z,17.98
2023-04-15T15:58:50.951Z,18.95
2023-04-15T16:01:17.533Z,21.88
2023-04-15T16:03:44.323Z,25.77
2023-04-15T16:06:11.655Z,21.05
2023-04-15T16:08:38.246Z,22.08
2023-04-15T16:11:04.841Z,24.88
2023-04-15T16:13:31.420Z,23.38
2023-04-15T16:15:58.011Z,20.52
2023-04-15T16:18:24.623Z,21.42
2023-04-15T16:20:51.316Z,20.05
2023-04-15T16:23:20.048Z,24.02
2023-04-15T16:25:46.623Z,21.65
2023-04-15T16:28:25.552Z,24.17
2023-04-15T16:30:53.513Z,24.48
2023-04-15T16:33:20.149Z,27.08
2023-04-15T16:35:46.724Z,25.17
2023-04-15T16:38:13.280Z,25.50
2023-04-15T16:40:39.874Z,27.80
2023-04-15T16:43:08.192Z,24.67
2023-04-15T16:45:34.923Z,25.83
2023-04-15T16:48:01.554Z,31.83
2023-04-15T16:50:28.181Z,31.33
2023-04-15T16:52:55.320Z,26.65
2023-04-15T16:55:22.003Z,31.77
2023-04-15T16:58:02.263Z,32.97
2023-04-15T17:00:36.214Z,33.72
2023-04-15T17:03:03.140Z,33.03
2023-04-15T17:05:31.142Z,36.25
2023-04-15T17:07:58.434Z,34.70
2023-04-15T17:10:24.996Z,35.53
2023-04-15T17:12:52.856Z,40.17
2023-04-15T17:15:20.043Z,37.92
2023-04-15T17:17:46.729Z,39.75
2023-04-15T17:20:13.408Z,36.17
2023-04-15T17:22:40.177Z,38.08
2023-04-15T17:25:07.166Z,44.42
2023-04-15T17:27:33.777Z,41.33
2023-04-15T17:30:00.422Z,43.35
2023-04-15T17:32:31.830Z,38.78
2023-04-15T17:34:58.656Z,40.47
2023-04-15T17:37:25.541Z,37.60
2023-04-15T17:39:52.292Z,44.85
2023-04-15T17:42:18.984Z,43.38
2023-04-15T17:44:46.004Z,40.10
2023-04-15T17:47:12.572Z,40.72
2023-04-15T17:49:39.186Z,38.53
2023-04-15T17:52:05.992Z,38.25
2023-04-15T17:54:32.568Z,43.30
2023-04-15T17:57:00.204Z,39.17
2023-04-15T17:59:27.748Z,45.03
2023-04-15T18:01:54.389Z,46.95
2023-04-15T18:04:22.075Z,43.92
2023-04-15T18:06:51.874Z,41.40
2023-04-15T18:09:18.534Z,43.00
2023-04-15T18:11:47.343Z,38.60
2023-04-15T18:14:17.704Z,37.88
2023-04-15T18:16:53.461Z,43.70
2023-04-15T18:19:21.793Z,37.10
2023-04-15T18:21:48.346Z,42.95
2023-04-15T18:24:16.135Z,45.83
2023-04-15T18:26:42.949Z,52.50
2023-04-15T18:29:10.571Z,41.17
2023-04-15T18:31:37.130Z,47.17
2023-04-15T18:34:07.315Z,44.53
2023-04-15T18:36:34.170Z,47.22
2023-04-15T18:39:00.776Z,58.13
2023-04-15T18:41:27.346Z,43.03
2023-04-15T18:43:54.714Z,42.55
2023-04-15T18:46:21.321Z,43.58
2023-04-15T18:48:47.885Z,45.20
2023-04-15T18:51:15.375Z,44.40
2023-04-15T18:53:41.926Z,50.28
2023-04-15T18:56:08.553Z,45.97
2023-04-15T18:59:20.792Z,54.30
2023-04-15T19:01:21.945Z,50.53
2023-04-15T19:03:48.655Z,52.97
2023-04-15T19:06:15.464Z,53.35
2023-04-15T19:08:42.071Z,57.70
2023-04-15T19:11:08.940Z,52.42
2023-04-15T19:13:35.497Z,50.03
2023-04-15T19:16:02.116Z,53.72
2023-04-15T19:18:28.666Z,58.50
2023-04-15T19:20:56.722Z,58.72
2023-04-15T19:23:23.783Z,57.67
2023-04-15T19:25:50.554Z,62.15
2023-04-15T19:28:17.117Z,57.80
2023-04-15T19:30:43.685Z,57.30
2023-04-15T19:33:10.498Z,60.40
2023-04-15T19:35:38.261Z,67.75
2023-04-15T19:38:05.388Z,67.88
2023-04-15T19:40:31.990Z,60.45
2023-04-15T19:42:58.569Z,64.28
2023-04-15T19:45:25.291Z,62.67
2023-04-15T19:47:52.782Z,60.65
2023-04-15T19:50:24.578Z,66.43
2023-04-15T19:52:51.135Z,63.53
2023-04-15T19:55:17.751Z,65.28
2023-04-15T19:57:44.360Z,63.78
2023-04-15T20:00:11.599Z,63.95
2023-04-15T20:02:38.400Z,65.65
2023-04-15T20:05:09.690Z,78.63
2023-04-15T20:07:36.413Z,74.05
2023-04-15T20:10:03.256Z,72.65
2023-04-15T20:12:51.258Z,61.65
2023-04-15T20:15:19.182Z,62.95
2023-04-15T20:17:45.846Z,69.65
2023-04-15T20:20:12.480Z,64.82
2023-04-15T20:22:39.073Z,55.45
2023-04-15T20:25:06.110Z,61.13
2023-04-15T20:27:32.694Z,60.65
2023-04-15T20:29:59.313Z,56.75
2023-04-15T20:32:26.983Z,59.95
2023-04-15T20:34:53.839Z,65.30
2023-04-15T20:37:20.547Z,69.28
2023-04-15T20:39:47.192Z,66.78
2023-04-15T20:42:13.781Z,64.65
2023-04-15T20:44:40.369Z,67.22
2023-04-15T20:47:07.312Z,70.47
2023-04-15T20:49:37.806Z,61.75
2023-04-15T20:52:06.494Z,62.50
2023-04-15T20:54:33.241Z,62.33
2023-04-15T20:57:00.066Z,62.95
2023-04-15T20:59:26.816Z,61.25
2023-04-15T21:01:53.892Z,62.05
2023-04-15T21:04:22.093Z,58.47
2023-04-15T21:06:48.758Z,69.43
2023-04-15T21:09:15.537Z,60.88
2023-04-15T21:11:59.903Z,58.65
2023-04-15T21:14:28.050Z,61.05
2023-04-15T21:16:54.657Z,62.10
2023-04-15T21:19:21.261Z,62.42
2023-04-15T21:21:47.824Z,66.40
2023-04-15T21:24:14.382Z,61.17
2023-04-15T21:26:40.991Z,63.20
2023-04-15T21:29:10.405Z,53.80
2023-04-15T21:31:38.120Z,53.78
2023-04-15T21:34:05.458Z,58.40
2023-04-15T21:36:32.285Z,61.83
2023-04-15T21:38:58.946Z,57.13
2023-04-15T21:41:25.973Z,51.65
2023-04-15T21:43:53.191Z,50.35
2023-04-15T21:46:22.275Z,54.28
2023-04-15T21:48:51.618Z,57.20
2023-04-15T21:51:18.163Z,60.22
2023-04-15T21:53:44.773Z,54.05
2023-04-15T21:56:12.036Z,58.05
2023-04-15T21:58:38.611Z,60.88
2023-04-15T22:01:05.336Z,54.85
2023-04-15T22:03:34.049Z,64.28
2023-04-15T22:06:03.975Z,57.45
2023-04-15T22:08:38.132Z,60.55
2023-04-15T22:11:20.606Z,59.13
2023-04-15T22:13:47.187Z,53.72
2023-04-15T22:16:13.751Z,56.42
2023-04-15T22:18:40.321Z,60.42
2023-04-15T22:21:07.943Z,56.03
2023-04-15T22:23:34.518Z,59.27
2023-04-15T22:26:01.090Z,56.10
2023-04-15T22:28:27.729Z,60.05
2023-04-15T22:30:54.738Z,52.53
2023-04-15T22:33:21.376Z,63.83
2023-04-15T22:35:47.970Z,53.05
2023-04-15T22:38:14.537Z,57.50
2023-04-15T22:40:41.126Z,57.47
2023-04-15T22:43:07.697Z,57.65
2023-04-15T22:45:34.341Z,58.60
2023-04-15T22:48:01.196Z,59.17
2023-04-15T22:50:27.868Z,50.72
2023-04-15T22:52:54.433Z,56.20
2023-04-15T22:55:21.311Z,55.97
2023-04-15T22:57:47.872Z,56.38
2023-04-15T23:00:14.589Z,47.15
2023-04-15T23:02:41.239Z,50.13
2023-04-15T23:05:13.029Z,54.30
2023-04-15T23:07:40.056Z,58.67
2023-04-15T23:10:08.035Z,57.78
2023-04-15T23:12:34.710Z,54.55
2023-04-15T23:15:01.285Z,61.00
2023-04-15T23:17:27.933Z,51.55
2023-04-15T23:19:54.505Z,48.15
2023-04-15T23:22:21.080Z,50.83
2023-04-15T23:24:47.649Z,59.20
2023-04-15T23:27:14.231Z,55.95
2023-04-15T23:29:40.850Z,54.83
2023-04-15T23:32:07.419Z,55.22
2023-04-15T23:34:34.033Z,49.92
2023-04-15T23:37:00.955Z,53.88
2023-04-15T23:39:27.552Z,54.05
2023-04-15T23:41:54.181Z,51.95
2023-04-15T23:44:20.747Z,48.80
2023-04-15T23:46:47.447Z,59.03
2023-04-15T23:49:14.274Z,56.90
2023-04-15T23:51:41.164Z,58.92
2023-04-15T23:54:07.750Z,57.65
2023-04-15T23:56:34.330Z,52.15
2023-04-15T23:59:00.900Z,53.85
